Albertson, NC

7:08 PM EST on November 26, 2014 (GMT -0500)
Rural, farm country | Change Station
CLOSE
Current Station
Personal Weather Station
Location: Seven Springs, NC
Elevation: 154 ft
Nearby Weather Stations

Elev 154 ft 35.18 °N, 77.84 °W | Updated 3 minutes ago

Overcast
Overcast
44.1 °F
Feels Like 41 °F
N
6.0
Wind Variable Wind from NW
Gusts 13.0 mph

Today
High -- | Low -- °F
--% Chance of Precip.
Yesterday
High -- | Low -- °F
Precip. -- in
6:56 AM 5:00 PM
Waxing Crescent, 24% visible
Pressure 30.06 in
Visibility 10.0 miles
Clouds Overcast 2000 ft
Windchill 41 °F
Dew Point 42 °F
Humidity 91%
Rainfall 0.64 in
Snow Depth Not available.
UV 0 out of 12
Pollen .30 out of 12
Air Quality Not available.
Flu Activity Not available.
METAR KDPL 262355Z AUTO 29005KT 10SM OVC020 07/05 A3006 RMK AO2 T00670045 10087 20066

More Conditions Fewer Conditions

Pressure 30.06 in
Visibility 10.0 miles
Clouds Overcast 2000 ft
Windchill 41 °F
Dew Point 42 °F
Humidity 91%
Rainfall 0.64 in
Snow Depth Not available.
UV 0 out of 12
Pollen .30 out of 12
Air Quality Not available.
Flu Activity Not available.
METAR KDPL 262355Z AUTO 29005KT 10SM OVC020 07/05 A3006 RMK AO2 T00670045 10087 20066

More Conditions Fewer Conditions

10-Day Weather Forecast

Almanac

Astronomy

Nov. 26, 2014 Rise Set
Actual Time
Civil Twilight
Nautical Twilight
Astronomical Twilight
Moon
Length of Visible Light
Length of Day
Tomorrow will be .
, % of the Moon is Illuminated

Today's Extremes

State Highs State Lows

Community

WunderPhotos

Upload Photos

1,773,926 photos uploaded!

WunderBlogs® & News

Nearby

Air Quality

  Air Quality AQ Index Pollutant
Not available.

Snow Depth

Station Depth Elevation

Earthquake Activity

City Distance Mag. Time & Date
Minimum magnitude displayed is 2.5.

Coastal Water Temperatures

Place Temperature

Nearby Weather Stations